Time;durP1;ratioP1;P1;durP2;ratioP2;P2;SDS_P1;SDS_P2;PMS_P1;PMS_P2;Temp;Humidity;BMP_temperature;BMP_pressure;BME280_temperature;BME280_humidity;BME280_pressure;Samples;Min_cycle;Max_cycle;Signal;HPM_P1;HPM_P2
2020/12/23 00:01:26;;;;;;;;;;;;;;;3.32;100.00;100141.31;5093624;28;19924;-75
2020/12/23 00:03:55;;;;;;;;;;;;;;;3.29;100.00;100164.13;5074921;28;19931;-75
2020/12/23 00:06:22;;;;;;;;;;;;;;;3.28;100.00;100183.81;5093140;28;19925;-75
2020/12/23 00:08:48;;;;;;;;;;;;;;;3.25;100.00;100217.66;5093140;28;19924;-75
2020/12/23 00:11:15;;;;;;;;;;;;;;;3.30;100.00;100258.84;5093192;28;20378;-75
2020/12/23 00:13:42;;;;;;;;;;;;;;;3.32;100.00;100281.41;5093476;28;19931;-75
2020/12/23 00:16:08;;;;;;;;;;;;;;;3.30;100.00;100308.59;5093612;28;19970;-76
2020/12/23 00:18:35;;;;;;;;;;;;;;;3.32;100.00;100320.91;5093232;28;19939;-76
2020/12/23 00:21:07;;;;;;;;;;;;;;;3.27;100.00;100310.06;5056341;28;19931;-75
2020/12/23 00:23:34;;;;;;;;;;;;;;;3.30;100.00;100314.13;5090148;28;19924;-75
2020/12/23 00:26:01;;;;;;;;;;;;;;;3.23;100.00;100297.28;5075258;28;19946;-75
2020/12/23 00:28:28;;;;;;;;;;;;;;;3.22;100.00;100279.94;5093367;28;19931;-75
2020/12/23 00:30:55;;;;;;;;;;;;;;;3.24;100.00;100200.25;5094972;28;19924;-75
2020/12/23 00:33:24;;;;;;;;;;;;;;;3.20;100.00;100181.97;5098126;28;19928;-76
2020/12/23 00:35:50;;;;;;;;;;;;;;;3.24;100.00;100178.16;5079657;28;19928;-76
2020/12/23 00:38:17;;;;;;;;;;;;;;;3.20;100.00;100165.41;5096905;28;19932;-76
2020/12/23 00:40:43;;;;;;;;;;;;;;;3.19;100.00;100144.47;5097126;28;19930;-75
2020/12/23 00:43:09;;;;;;;;;;;;;;;3.14;100.00;100141.94;5096877;28;19930;-75
2020/12/23 00:45:36;;;;;;;;;;;;;;;3.26;100.00;100136.38;5097427;28;20302;-76
2020/12/23 00:48:03;;;;;;;;;;;;;;;3.16;100.00;100120.31;5060169;28;20006;-75
2020/12/23 00:50:30;;;;;;;;;;;;;;;3.16;100.00;100103.72;5079276;28;19924;-75
2020/12/23 00:52:56;;;;;;;;;;;;;;;3.17;100.00;100088.75;5097025;28;19944;-75
2020/12/23 00:55:23;;;;;;;;;;;;;;;3.16;100.00;100081.66;5104393;28;20364;-75
2020/12/23 00:57:49;;;;;;;;;;;;;;;3.15;100.00;100066.25;5108912;28;20377;-75
2020/12/23 01:00:16;;;;;;;;;;;;;;;3.20;100.00;100065.97;5078619;28;19924;-75
2020/12/23 01:02:42;;;;;;;;;;;;;;;3.21;100.00;100057.31;5091917;28;19973;-75
2020/12/23 01:05:09;;;;;;;;;;;;;;;3.24;100.00;100044.78;5097719;28;20001;-75
2020/12/23 01:07:35;;;;;;;;;;;;;;;3.22;100.00;100055.38;5096540;28;19924;-75
2020/12/23 01:10:02;;;;;;;;;;;;;;;3.22;100.00;100036.84;5095337;28;19924;-75
2020/12/23 01:12:29;;;;;;;;;;;;;;;3.22;100.00;100033.28;5061978;28;20057;-75
2020/12/23 01:14:55;;;;;;;;;;;;;;;3.25;100.00;100025.09;5096967;28;19995;-75
2020/12/23 01:17:21;;;;;;;;;;;;;;;3.28;100.00;100013.34;5096628;28;20014;-75
2020/12/23 01:19:48;;;;;;;;;;;;;;;3.32;100.00;100030.81;5089866;28;19932;-76
2020/12/23 01:22:15;;;;;;;;;;;;;;;3.23;100.00;100023.84;5088653;28;19928;-75
2020/12/23 01:24:41;;;;;;;;;;;;;;;3.19;100.00;100015.47;5077706;28;20364;-75
2020/12/23 01:27:07;;;;;;;;;;;;;;;3.19;100.00;100004.44;5078840;28;19928;-75
2020/12/23 01:29:34;;;;;;;;;;;;;;;3.22;100.00;100002.91;5097198;28;19930;-75
2020/12/23 01:32:00;;;;;;;;;;;;;;;3.21;100.00;99988.28;5080300;28;19928;-76
2020/12/23 01:34:27;;;;;;;;;;;;;;;3.20;100.00;99983.09;5096695;28;20074;-75
2020/12/23 01:36:53;;;;;;;;;;;;;;;3.23;100.00;99976.88;5095336;28;19931;-75
2020/12/23 01:39:20;;;;;;;;;;;;;;;3.29;100.00;99964.41;5096182;28;20351;-76
2020/12/23 01:41:46;;;;;;;;;;;;;;;3.27;100.00;99955.69;5095933;28;19931;-75
2020/12/23 01:44:13;;;;;;;;;;;;;;;3.34;100.00;99936.53;5077893;28;19924;-76
2020/12/23 01:46:40;;;;;;;;;;;;;;;3.31;100.00;99926.22;5096346;28;20401;-75
2020/12/23 01:49:07;;;;;;;;;;;;;;;3.24;100.00;99913.00;5096259;28;19924;-75
2020/12/23 01:51:37;;;;;;;;;;;;;;;3.30;100.00;99917.09;5095937;28;19924;-75
2020/12/23 01:54:03;;;;;;;;;;;;;;;3.31;100.00;99898.59;5095961;28;19924;-75
2020/12/23 01:56:30;;;;;;;;;;;;;;;3.26;100.00;99890.53;5095885;28;19928;-75
2020/12/23 01:58:57;;;;;;;;;;;;;;;3.26;100.00;99869.25;5096075;28;19924;-75
2020/12/23 02:01:25;;;;;;;;;;;;;;;3.23;100.00;99866.41;5077503;28;19924;-75
2020/12/23 02:03:51;;;;;;;;;;;;;;;3.21;100.00;99865.97;5041727;28;20302;-75
2020/12/23 02:06:18;;;;;;;;;;;;;;;3.18;100.00;99858.41;5086529;28;19924;-75
2020/12/23 02:08:45;;;;;;;;;;;;;;;3.17;100.00;99848.50;5095715;28;19924;-75
2020/12/23 02:11:14;;;;;;;;;;;;;;;3.15;100.00;99837.81;5077829;28;19924;-77
2020/12/23 02:13:42;;;;;;;;;;;;;;;3.13;100.00;99828.28;5095398;28;19971;-76
2020/12/23 02:16:09;;;;;;;;;;;;;;;3.14;100.00;99816.06;5077486;28;19965;-76
2020/12/23 02:18:36;;;;;;;;;;;;;;;3.14;100.00;99813.31;5076506;28;20306;-76
2020/12/23 02:21:03;;;;;;;;;;;;;;;3.10;100.00;99806.91;5077373;28;19924;-76
2020/12/23 02:23:30;;;;;;;;;;;;;;;3.12;100.00;99799.06;5094985;28;19924;-76
2020/12/23 02:25:57;;;;;;;;;;;;;;;3.11;100.00;99792.75;5077700;28;20297;-76
2020/12/23 02:28:23;;;;;;;;;;;;;;;3.12;100.00;99776.97;5095250;28;19931;-77
2020/12/23 02:30:57;;;;;;;;;;;;;;;3.15;100.00;99765.22;5095389;28;19955;-77
2020/12/23 02:33:24;;;;;;;;;;;;;;;3.09;100.00;99763.88;5076736;28;19930;-76
2020/12/23 02:35:50;;;;;;;;;;;;;;;3.11;100.00;99756.03;5060334;28;19986;-77
2020/12/23 02:38:17;;;;;;;;;;;;;;;3.20;100.00;99751.13;5076941;28;19931;-76
2020/12/23 02:40:43;;;;;;;;;;;;;;;3.24;100.00;99743.75;5095254;28;19924;-77
2020/12/23 02:43:09;;;;;;;;;;;;;;;3.13;100.00;99746.25;5093064;28;19924;-77
2020/12/23 02:45:36;;;;;;;;;;;;;;;3.12;100.00;99743.84;5094882;28;19924;-77
2020/12/23 02:48:03;;;;;;;;;;;;;;;3.09;100.00;99736.28;5094700;28;19955;-76
2020/12/23 02:50:29;;;;;;;;;;;;;;;3.10;100.00;99722.13;5094485;28;19959;-76
2020/12/23 02:52:55;;;;;;;;;;;;;;;3.19;100.00;99716.38;5092763;28;19924;-76
2020/12/23 02:55:22;;;;;;;;;;;;;;;3.14;100.00;99687.09;5076141;28;20263;-75
2020/12/23 02:57:49;;;;;;;;;;;;;;;3.11;100.00;99687.81;5075774;28;20011;-75
2020/12/23 03:00:15;;;;;;;;;;;;;;;3.09;100.00;99679.06;5094830;28;19924;-76
2020/12/23 03:02:42;;;;;;;;;;;;;;;3.07;100.00;99669.56;5094908;28;19959;-76
2020/12/23 03:05:08;;;;;;;;;;;;;;;3.10;100.00;99671.59;5095004;28;19924;-76
2020/12/23 03:07:35;;;;;;;;;;;;;;;3.09;100.00;99659.75;5094959;28;20378;-76
2020/12/23 03:10:02;;;;;;;;;;;;;;;3.08;100.00;99655.41;5095072;28;20367;-76
2020/12/23 03:12:30;;;;;;;;;;;;;;;3.13;100.00;99648.78;5091422;28;19924;-76
2020/12/23 03:14:57;;;;;;;;;;;;;;;3.04;100.00;99632.44;5094160;28;19939;-76
2020/12/23 03:17:23;;;;;;;;;;;;;;;3.10;100.00;99630.19;5094237;28;19925;-76
2020/12/23 03:19:50;;;;;;;;;;;;;;;3.18;100.00;99620.91;5094121;28;19930;-76
2020/12/23 03:22:16;;;;;;;;;;;;;;;3.09;100.00;99612.81;5094069;28;19931;-76
2020/12/23 03:24:43;;;;;;;;;;;;;;;3.09;100.00;99612.03;5076493;28;19924;-76
2020/12/23 03:27:09;;;;;;;;;;;;;;;3.14;100.00;99615.28;5093833;28;20019;-76
2020/12/23 03:29:36;;;;;;;;;;;;;;;3.12;100.00;99609.31;5094312;28;19924;-76
2020/12/23 03:32:02;;;;;;;;;;;;;;;3.15;100.00;99616.09;5094256;28;19931;-76
2020/12/23 03:34:29;;;;;;;;;;;;;;;3.15;100.00;99607.81;5093341;28;19924;-76
2020/12/23 03:36:56;;;;;;;;;;;;;;;3.14;100.00;99608.97;5075972;28;19963;-77
2020/12/23 03:39:22;;;;;;;;;;;;;;;3.13;100.00;99599.09;5075841;28;19931;-76
2020/12/23 03:41:48;;;;;;;;;;;;;;;3.08;100.00;99599.34;5075613;28;19924;-77
2020/12/23 03:44:15;;;;;;;;;;;;;;;3.12;100.00;99600.25;5093685;28;19927;-76
2020/12/23 03:46:42;;;;;;;;;;;;;;;3.11;100.00;99593.13;5093403;28;20019;-76
2020/12/23 03:49:08;;;;;;;;;;;;;;;3.10;100.00;99581.28;5075468;28;19986;-76
2020/12/23 03:51:35;;;;;;;;;;;;;;;3.09;100.00;99573.38;5094238;28;20018;-76
2020/12/23 03:54:01;;;;;;;;;;;;;;;3.05;100.00;99559.47;5093408;28;19924;-76
2020/12/23 03:56:28;;;;;;;;;;;;;;;3.08;100.00;99560.72;5075092;28;19947;-76
2020/12/23 03:58:54;;;;;;;;;;;;;;;3.05;100.00;99553.16;5093784;28;19950;-76
2020/12/23 04:01:21;;;;;;;;;;;;;;;3.11;100.00;99543.41;5092758;28;19924;-76
2020/12/23 04:03:47;;;;;;;;;;;;;;;3.15;100.00;99549.84;5074721;28;19924;-76
2020/12/23 04:06:14;;;;;;;;;;;;;;;3.10;100.00;99542.63;5093252;28;19924;-76
2020/12/23 04:08:41;;;;;;;;;;;;;;;3.12;100.00;99545.03;5093423;28;19924;-77
2020/12/23 04:11:07;;;;;;;;;;;;;;;3.14;100.00;99537.97;5093565;28;19924;-77
2020/12/23 04:13:34;;;;;;;;;;;;;;;3.14;100.00;99535.22;5055363;28;20369;-77
2020/12/23 04:16:00;;;;;;;;;;;;;;;3.19;100.00;99534.94;5091416;28;19924;-79
2020/12/23 04:18:26;;;;;;;;;;;;;;;3.21;100.00;99537.34;5087241;28;19924;-79
2020/12/23 04:20:53;;;;;;;;;;;;;;;3.26;100.00;99539.78;5075891;28;20344;-79
2020/12/23 04:23:19;;;;;;;;;;;;;;;3.25;100.00;99527.97;5089807;28;20300;-76
2020/12/23 04:25:46;;;;;;;;;;;;;;;3.27;100.00;99522.06;5093199;28;20363;-77
2020/12/23 04:28:12;;;;;;;;;;;;;;;3.29;100.00;99523.28;5088647;28;20375;-77
2020/12/23 04:30:39;;;;;;;;;;;;;;;3.21;100.00;99510.50;5073771;28;20279;-80
2020/12/23 04:33:05;;;;;;;;;;;;;;;3.23;100.00;99513.69;5057342;28;20032;-79
2020/12/23 04:35:32;;;;;;;;;;;;;;;3.24;100.00;99500.72;5067360;28;20252;-76
2020/12/23 04:37:59;;;;;;;;;;;;;;;3.26;100.00;99495.59;5093016;28;19993;-78
2020/12/23 04:40:25;;;;;;;;;;;;;;;3.29;100.00;99478.28;5093062;28;20307;-76
2020/12/23 04:42:52;;;;;;;;;;;;;;;3.25;100.00;99482.97;5092888;28;20023;-76
2020/12/23 04:45:22;;;;;;;;;;;;;;;3.23;100.00;99477.00;5092975;28;19924;-75
2020/12/23 04:47:49;;;;;;;;;;;;;;;3.31;100.00;99465.72;5074815;28;19963;-75
2020/12/23 04:50:20;;;;;;;;;;;;;;;3.27;100.00;99464.06;5075631;28;19924;-75
2020/12/23 04:52:47;;;;;;;;;;;;;;;3.30;100.00;99457.81;5074992;28;20019;-75
2020/12/23 04:55:13;;;;;;;;;;;;;;;3.28;100.00;99454.59;5074570;28;20022;-75
2020/12/23 04:57:40;;;;;;;;;;;;;;;3.31;100.00;99449.16;5061086;28;20322;-75
2020/12/23 05:00:07;;;;;;;;;;;;;;;3.29;100.00;99445.16;5074392;28;19928;-75
2020/12/23 05:02:34;;;;;;;;;;;;;;;3.35;100.00;99440.91;5092975;28;20363;-75
2020/12/23 05:05:09;;;;;;;;;;;;;;;3.33;100.00;99446.03;5074728;28;19982;-76
2020/12/23 05:07:36;;;;;;;;;;;;;;;3.34;100.00;99434.63;5093090;28;20367;-75
2020/12/23 05:10:05;;;;;;;;;;;;;;;3.40;100.00;99429.59;5098959;28;19924;-75
2020/12/23 05:12:33;;;;;;;;;;;;;;;3.40;100.00;99424.06;5089995;28;20329;-75
2020/12/23 05:15:06;;;;;;;;;;;;;;;3.44;100.00;99411.09;5092027;28;19932;-75
2020/12/23 05:17:32;;;;;;;;;;;;;;;3.43;100.00;99399.25;5095111;28;20628;-75
2020/12/23 05:19:59;;;;;;;;;;;;;;;3.46;100.00;99406.00;5096480;28;19966;-75
2020/12/23 05:22:27;;;;;;;;;;;;;;;3.45;100.00;99393.38;5096462;28;19924;-75
2020/12/23 05:24:54;;;;;;;;;;;;;;;3.48;100.00;99398.16;5095095;28;20359;-75
2020/12/23 05:27:22;;;;;;;;;;;;;;;3.46;100.00;99389.44;5096273;28;20441;-75
2020/12/23 05:29:48;;;;;;;;;;;;;;;3.45;100.00;99382.31;5095691;28;20367;-75
2020/12/23 05:32:15;;;;;;;;;;;;;;;3.48;100.00;99381.59;5096221;28;20019;-75
2020/12/23 05:34:42;;;;;;;;;;;;;;;3.45;100.00;99371.28;5095642;28;19976;-75
2020/12/23 05:37:10;;;;;;;;;;;;;;;3.43;100.00;99370.84;5096390;28;19997;-75
2020/12/23 05:39:36;;;;;;;;;;;;;;;3.45;100.00;99365.75;5077913;28;20062;-75
2020/12/23 05:42:03;;;;;;;;;;;;;;;3.47;100.00;99352.34;5096338;28;20355;-75
2020/12/23 05:44:29;;;;;;;;;;;;;;;3.43;100.00;99341.25;5094445;28;19940;-75
2020/12/23 05:46:56;;;;;;;;;;;;;;;3.44;100.00;99348.38;5078082;28;19931;-75
2020/12/23 05:49:23;;;;;;;;;;;;;;;3.48;100.00;99342.91;5095749;28;19924;-75
2020/12/23 05:51:51;;;;;;;;;;;;;;;3.50;100.00;99352.41;5096073;28;19924;-75
2020/12/23 05:54:18;;;;;;;;;;;;;;;3.48;100.00;99338.16;5095332;28;19939;-75
2020/12/23 05:56:44;;;;;;;;;;;;;;;3.47;100.00;99336.56;5067759;28;19924;-75
2020/12/23 05:59:11;;;;;;;;;;;;;;;3.55;100.00;99320.91;5076942;28;19928;-75
2020/12/23 06:01:38;;;;;;;;;;;;;;;3.54;100.00;99324.84;5095355;28;20274;-75
2020/12/23 06:04:06;;;;;;;;;;;;;;;3.55;100.00;99326.44;5097546;28;19924;-75
2020/12/23 06:06:33;;;;;;;;;;;;;;;3.53;100.00;99326.81;5095231;28;19939;-75
2020/12/23 06:09:04;;;;;;;;;;;;;;;3.52;100.00;99329.94;5095262;28;19925;-75
2020/12/23 06:11:33;;;;;;;;;;;;;;;3.53;100.00;99326.81;5095760;28;19924;-75
2020/12/23 06:14:00;;;;;;;;;;;;;;;3.53;100.00;99326.00;5094692;28;19931;-75
2020/12/23 06:16:30;;;;;;;;;;;;;;;3.53;100.00;99312.19;5095601;28;19924;-75
2020/12/23 06:18:59;;;;;;;;;;;;;;;3.52;100.00;99305.06;5094987;28;19924;-75
2020/12/23 06:21:28;;;;;;;;;;;;;;;3.48;100.00;99305.00;5077047;28;20407;-76
2020/12/23 06:24:02;;;;;;;;;;;;;;;3.49;100.00;99297.53;5094959;28;19935;-75
2020/12/23 06:26:33;;;;;;;;;;;;;;;3.50;100.00;99293.59;5060306;28;19959;-75
2020/12/23 06:29:01;;;;;;;;;;;;;;;3.48;100.00;99301.47;5094884;28;19994;-75
2020/12/23 06:31:29;;;;;;;;;;;;;;;3.50;100.00;99296.34;5094961;28;19928;-75
2020/12/23 06:33:57;;;;;;;;;;;;;;;3.49;100.00;99292.00;5076764;28;19964;-76
2020/12/23 06:36:34;;;;;;;;;;;;;;;3.51;100.00;99278.63;5094876;28;19924;-75
2020/12/23 06:39:20;;;;;;;;;;;;;;;3.48;100.00;99280.16;5094585;28;19924;-75
2020/12/23 06:41:47;;;;;;;;;;;;;;;3.48;100.00;99262.78;5094922;28;19924;-75
2020/12/23 06:44:14;;;;;;;;;;;;;;;3.46;100.00;99265.94;5076986;28;19932;-75
2020/12/23 06:46:59;;;;;;;;;;;;;;;3.47;100.00;99259.22;5094972;28;19924;-75
2020/12/23 06:49:39;;;;;;;;;;;;;;;3.50;100.00;99257.66;5094626;28;19936;-75
2020/12/23 06:52:21;;;;;;;;;;;;;;;3.54;100.00;99250.25;5077003;28;19960;-75
2020/12/23 06:54:48;;;;;;;;;;;;;;;3.48;100.00;99248.97;5093973;28;20022;-74
2020/12/23 06:57:37;;;;;;;;;;;;;;;3.45;100.00;99244.19;5086317;28;19942;-76
2020/12/23 07:00:04;;;;;;;;;;;;;;;3.42;100.00;99225.59;5059715;28;19924;-76
2020/12/23 07:02:47;;;;;;;;;;;;;;;3.45;100.00;99241.44;5089734;28;19931;-78
2020/12/23 07:05:31;;;;;;;;;;;;;;;3.47;100.00;99241.84;5089620;28;20002;-78
2020/12/23 07:07:58;;;;;;;;;;;;;;;3.47;100.00;99230.78;5071196;28;19920;-78
2020/12/23 07:10:24;;;;;;;;;;;;;;;3.51;100.00;99228.91;5089263;28;19932;-78
2020/12/23 07:12:51;;;;;;;;;;;;;;;3.49;100.00;99234.78;5085176;28;19935;-78
2020/12/23 07:15:25;;;;;;;;;;;;;;;3.56;100.00;99217.50;5090759;28;19924;-77
2020/12/23 07:17:52;;;;;;;;;;;;;;;3.53;100.00;99212.72;5089976;28;19958;-78
2020/12/23 07:20:22;;;;;;;;;;;;;;;3.53;100.00;99208.00;5089781;28;19930;-77
2020/12/23 07:22:50;;;;;;;;;;;;;;;3.56;100.00;99195.41;5089920;28;19928;-77
2020/12/23 07:25:18;;;;;;;;;;;;;;;3.56;100.00;99193.44;5089297;28;20442;-75
2020/12/23 07:27:45;;;;;;;;;;;;;;;3.58;100.00;99187.53;5089310;28;19924;-76
2020/12/23 07:30:12;;;;;;;;;;;;;;;3.61;100.00;99181.25;5090329;28;19969;-76
2020/12/23 07:32:39;;;;;;;;;;;;;;;3.65;100.00;99171.03;5090345;28;19924;-75
2020/12/23 07:35:06;;;;;;;;;;;;;;;3.65;100.00;99176.56;5070768;28;19928;-76
2020/12/23 07:37:37;;;;;;;;;;;;;;;3.67;100.00;99177.81;5099396;27;19924;-76
2020/12/23 07:40:12;;;;;;;;;;;;;;;3.70;100.00;99177.06;5092171;28;19931;-75
2020/12/23 07:42:38;;;;;;;;;;;;;;;3.68;100.00;99176.63;5077905;28;19946;-75
2020/12/23 07:45:05;;;;;;;;;;;;;;;3.70;100.00;99166.00;5093907;28;19932;-75
2020/12/23 07:47:32;;;;;;;;;;;;;;;3.71;100.00;99164.03;5075967;28;19973;-75
2020/12/23 07:50:01;;;;;;;;;;;;;;;3.80;100.00;99158.22;5094019;28;19924;-74
2020/12/23 07:52:28;;;;;;;;;;;;;;;3.80;100.00;99156.25;5093685;28;19924;-75
2020/12/23 07:54:54;;;;;;;;;;;;;;;3.76;100.00;99146.34;5092469;28;19924;-75
2020/12/23 07:57:29;;;;;;;;;;;;;;;3.75;100.00;99145.53;5093426;28;19932;-75
2020/12/23 07:59:59;;;;;;;;;;;;;;;3.76;100.00;99132.53;5080908;28;19935;-75
2020/12/23 08:02:26;;;;;;;;;;;;;;;3.73;100.00;99134.84;5075810;28;19966;-75
2020/12/23 08:04:53;;;;;;;;;;;;;;;3.74;100.00;99130.13;5092734;28;19924;-75
2020/12/23 08:07:25;;;;;;;;;;;;;;;3.84;100.00;99134.97;5093439;28;19953;-75
2020/12/23 08:10:17;;;;;;;;;;;;;;;3.80;100.00;99142.44;5059380;28;19932;-75
2020/12/23 08:13:05;;;;;;;;;;;;;;;3.82;100.00;99136.53;5050922;28;20008;-75
2020/12/23 08:15:32;;;;;;;;;;;;;;;3.82;100.00;99142.06;5093102;28;20337;-75
2020/12/23 08:18:03;;;;;;;;;;;;;;;3.86;100.00;99143.69;5075466;28;19924;-75
2020/12/23 08:20:32;;;;;;;;;;;;;;;3.85;100.00;99144.06;5075171;28;19928;-75
2020/12/23 08:22:59;;;;;;;;;;;;;;;3.82;100.00;99131.78;5074750;28;20294;-75
2020/12/23 08:25:26;;;;;;;;;;;;;;;3.81;100.00;99141.25;5092989;28;19928;-75
2020/12/23 08:27:54;;;;;;;;;;;;;;;3.79;100.00;99140.84;5093445;28;19924;-76
2020/12/23 08:30:22;;;;;;;;;;;;;;;3.81;100.00;99140.47;5075522;28;19932;-75
2020/12/23 08:33:02;;;;;;;;;;;;;;;3.81;100.00;99132.97;5092426;28;19947;-74
2020/12/23 08:35:29;;;;;;;;;;;;;;;3.85;100.00;99131.03;5093342;28;19932;-74
2020/12/23 08:37:56;;;;;;;;;;;;;;;3.94;100.00;99139.06;5093033;28;19928;-74
2020/12/23 08:40:23;;;;;;;;;;;;;;;3.87;100.00;99134.22;5092984;28;19970;-74
2020/12/23 08:42:50;;;;;;;;;;;;;;;3.82;100.00;99126.25;5093240;28;19924;-74
2020/12/23 08:45:24;;;;;;;;;;;;;;;3.87;100.00;99122.38;5093247;28;19928;-75
2020/12/23 08:47:51;;;;;;;;;;;;;;;3.85;100.00;99108.16;5074234;28;19924;-74
2020/12/23 08:50:18;;;;;;;;;;;;;;;3.80;100.00;99112.03;5092982;28;19931;-74
2020/12/23 08:52:45;;;;;;;;;;;;;;;3.83;100.00;99100.22;5095524;28;19932;-74
2020/12/23 08:55:23;;;;;;;;;;;;;;;3.88;100.00;99099.88;5097030;28;19975;-74
2020/12/23 08:57:50;;;;;;;;;;;;;;;3.87;100.00;99084.47;5096696;28;20022;-74
2020/12/23 09:00:20;;;;;;;;;;;;;;;3.91;100.00;99079.75;5096969;28;19932;-74
2020/12/23 09:02:50;;;;;;;;;;;;;;;3.97;100.00;99088.53;5096910;28;19924;-73
2020/12/23 09:05:26;;;;;;;;;;;;;;;4.05;100.00;99090.16;5078942;28;20010;-73
2020/12/23 09:08:11;;;;;;;;;;;;;;;4.17;100.00;99099.00;5112464;28;19946;-73
2020/12/23 09:10:57;;;;;;;;;;;;;;;4.19;100.00;99087.56;5075085;28;19975;-73
2020/12/23 09:13:28;;;;;;;;;;;;;;;4.21;100.00;99097.06;5096072;28;20030;-73
2020/12/23 09:15:55;;;;;;;;;;;;;;;4.23;100.00;99096.66;5088376;28;19959;-73
2020/12/23 09:18:22;;;;;;;;;;;;;;;4.24;100.00;99099.06;5098632;28;19962;-73
2020/12/23 09:20:56;;;;;;;;;;;;;;;4.29;100.00;99081.31;5103395;28;19924;-73
2020/12/23 09:23:26;;;;;;;;;;;;;;;4.44;100.00;99091.34;5091098;28;19931;-69
2020/12/23 09:25:54;;;;;;;;;;;;;;;4.36;100.00;99090.47;5054861;28;19935;-73
2020/12/23 09:28:23;;;;;;;;;;;;;;;4.36;100.00;99090.47;5056805;28;19947;-74
2020/12/23 09:30:50;;;;;;;;;;;;;;;4.41;100.00;99087.38;5092329;28;19924;-75
2020/12/23 09:33:18;;;;;;;;;;;;;;;4.47;100.00;99096.13;5093055;28;19928;-74
2020/12/23 09:35:46;;;;;;;;;;;;;;;4.38;100.00;99098.38;5073260;28;19924;-74
2020/12/23 09:38:14;;;;;;;;;;;;;;;4.44;100.00;99092.13;5092098;28;19986;-75
2020/12/23 09:40:42;;;;;;;;;;;;;;;4.46;100.00;99095.31;5073273;28;20062;-73
2020/12/23 09:43:12;;;;;;;;;;;;;;;4.45;100.00;99092.94;5091890;28;19924;-74
2020/12/23 09:45:39;;;;;;;;;;;;;;;4.40;100.00;99096.84;5077315;28;19931;-74
2020/12/23 09:48:05;;;;;;;;;;;;;;;4.45;100.00;99096.50;5099273;28;19924;-74
2020/12/23 09:50:32;;;;;;;;;;;;;;;4.47;100.00;99096.91;5090720;28;19932;-74
2020/12/23 09:52:59;;;;;;;;;;;;;;;4.51;100.00;99097.75;5073506;28;19977;-75
2020/12/23 09:55:25;;;;;;;;;;;;;;;4.55;100.00;99108.81;5092052;28;19932;-74
2020/12/23 09:57:52;;;;;;;;;;;;;;;4.48;100.00;99106.81;5091578;28;19931;-74
2020/12/23 10:00:20;;;;;;;;;;;;;;;4.46;100.00;99111.91;5092032;28;20484;-74
2020/12/23 10:02:46;;;;;;;;;;;;;;;4.50;100.00;99118.28;5093524;28;19928;-73
2020/12/23 10:05:13;;;;;;;;;;;;;;;4.44;100.00;99111.50;5094718;28;19924;-74
2020/12/23 10:07:39;;;;;;;;;;;;;;;4.46;100.00;99136.81;5095610;28;19924;-73
2020/12/23 10:10:06;;;;;;;;;;;;;;;4.46;100.00;99133.25;5095298;28;19977;-73
2020/12/23 10:12:33;;;;;;;;;;;;;;;4.46;100.00;99139.59;5095452;28;19930;-73
2020/12/23 10:14:59;;;;;;;;;;;;;;;4.42;100.00;99143.50;5092445;28;20024;-75
2020/12/23 10:17:26;;;;;;;;;;;;;;;4.41;100.00;99145.47;5094926;28;20062;-75
2020/12/23 10:19:52;;;;;;;;;;;;;;;4.33;100.00;99154.84;5094705;28;19924;-74
2020/12/23 10:22:19;;;;;;;;;;;;;;;4.43;100.00;99159.72;5077347;28;19924;-76
2020/12/23 10:24:45;;;;;;;;;;;;;;;4.37;100.00;99168.72;5076583;28;20043;-75
2020/12/23 10:27:13;;;;;;;;;;;;;;;4.37;100.00;99166.78;5095387;28;19924;-74
2020/12/23 10:29:39;;;;;;;;;;;;;;;4.39;100.00;99161.63;5094996;28;19953;-78
2020/12/23 10:32:07;;;;;;;;;;;;;;;4.34;100.00;99162.00;5088629;28;19935;-74
2020/12/23 10:34:34;;;;;;;;;;;;;;;4.38;100.00;99165.59;5091739;28;19928;-74
2020/12/23 10:37:00;;;;;;;;;;;;;;;4.35;100.00;99163.59;5106532;28;19946;-75
2020/12/23 10:39:27;;;;;;;;;;;;;;;4.43;100.00;99165.25;5096026;28;19928;-74
2020/12/23 10:41:54;;;;;;;;;;;;;;;4.52;100.00;99160.19;5090975;28;19935;-75
2020/12/23 10:44:24;;;;;;;;;;;;;;;4.54;100.00;99159.81;5072575;28;19924;-76
2020/12/23 10:46:57;;;;;;;;;;;;;;;4.53;100.00;99159.00;5091586;28;19931;-76
2020/12/23 10:49:24;;;;;;;;;;;;;;;4.54;100.00;99151.53;5091107;28;20768;-76
2020/12/23 10:51:52;;;;;;;;;;;;;;;4.49;100.00;99152.66;5093304;28;20005;-76
2020/12/23 10:54:19;;;;;;;;;;;;;;;4.49;100.00;99152.66;5076537;28;19924;-76
2020/12/23 10:56:46;;;;;;;;;;;;;;;4.57;100.00;99156.28;5094837;28;19931;-77
2020/12/23 10:59:12;;;;;;;;;;;;;;;4.59;100.00;99160.25;5094587;28;20004;-75
2020/12/23 11:01:38;;;;;;;;;;;;;;;4.59;100.00;99159.47;5104475;28;19932;-76
2020/12/23 11:04:05;;;;;;;;;;;;;;;4.58;100.00;99164.22;5076586;28;19931;-76
2020/12/23 11:06:32;;;;;;;;;;;;;;;4.63;100.00;99171.38;5076922;28;19924;-76
2020/12/23 11:08:59;;;;;;;;;;;;;;;4.63;100.00;99166.63;5094593;28;20432;-77
2020/12/23 11:11:26;;;;;;;;;;;;;;;4.61;100.00;99174.53;5076691;28;20003;-77
2020/12/23 11:13:53;;;;;;;;;;;;;;;4.72;100.00;99163.53;5093666;28;20349;-76
2020/12/23 11:16:19;;;;;;;;;;;;;;;4.63;100.00;99163.88;5094026;28;19928;-75
2020/12/23 11:18:46;;;;;;;;;;;;;;;4.68;100.00;99155.19;5093986;28;19928;-75
2020/12/23 11:21:13;;;;;;;;;;;;;;;4.61;100.00;99148.81;5076555;28;19961;-74
2020/12/23 11:23:40;;;;;;;;;;;;;;;4.66;100.00;99157.56;5076075;28;19924;-74
2020/12/23 11:26:13;;;;;;;;;;;;;;;4.67;100.00;99164.69;5076215;28;20035;-75
2020/12/23 11:28:49;;;;;;;;;;;;;;;4.67;100.00;99169.41;5094685;28;19931;-75
2020/12/23 11:31:16;;;;;;;;;;;;;;;4.76;100.00;99172.66;5094036;28;20339;-76
2020/12/23 11:33:42;;;;;;;;;;;;;;;4.74;100.00;99181.34;5094318;28;20259;-75
2020/12/23 11:36:09;;;;;;;;;;;;;;;4.75;100.00;99188.50;5075440;28;20283;-75
2020/12/23 11:38:36;;;;;;;;;;;;;;;4.77;100.00;99190.88;5095141;28;20276;-76
2020/12/23 11:41:05;;;;;;;;;;;;;;;4.79;100.00;99189.31;5100780;28;20394;-76
2020/12/23 11:43:32;;;;;;;;;;;;;;;4.72;100.00;99192.03;5094267;28;19985;-75
2020/12/23 11:45:58;;;;;;;;;;;;;;;4.75;100.00;99194.03;5093899;28;19977;-75
2020/12/23 11:48:25;;;;;;;;;;;;;;;4.71;100.00;99195.94;5085371;28;19932;-75
2020/12/23 11:50:52;;;;;;;;;;;;;;;4.78;100.00;99201.56;5076546;28;20386;-75
2020/12/23 11:53:18;;;;;;;;;;;;;;;4.77;100.00;99213.81;5113479;28;20363;-75
2020/12/23 11:55:45;;;;;;;;;;;;;;;4.74;100.00;99206.25;5097061;28;20381;-75
2020/12/23 11:58:11;;;;;;;;;;;;;;;4.75;100.00;99218.94;5075658;28;20334;-74
2020/12/23 12:00:38;;;;;;;;;;;;;;;4.76;100.00;99220.53;5093162;28;20046;-74
2020/12/23 12:03:04;;;;;;;;;;;;;;;4.85;100.00;99229.31;5093472;28;19931;-74
2020/12/23 12:05:30;;;;;;;;;;;;;;;4.86;100.00;99241.97;5093745;28;19931;-74
2020/12/23 12:07:58;;;;;;;;;;;;;;;4.88;100.00;99259.00;5086384;28;19982;-73
2020/12/23 12:10:24;;;;;;;;;;;;;;;4.78;100.00;99270.78;5090371;28;19928;-73
2020/12/23 12:12:51;;;;;;;;;;;;;;;4.76;100.00;99270.34;5093045;27;19924;-73
2020/12/23 12:15:17;;;;;;;;;;;;;;;4.84;100.00;99272.03;5092460;28;19931;-73
2020/12/23 12:17:44;;;;;;;;;;;;;;;4.80;100.00;99268.41;5074046;28;20424;-73
2020/12/23 12:20:10;;;;;;;;;;;;;;;4.80;100.00;99282.25;5082107;28;19924;-74
2020/12/23 12:22:37;;;;;;;;;;;;;;;4.81;100.00;99289.41;5091910;28;19928;-74
2020/12/23 12:25:04;;;;;;;;;;;;;;;4.80;100.00;99298.84;5092173;28;19956;-73
2020/12/23 12:27:30;;;;;;;;;;;;;;;4.74;100.00;99321.75;5100129;27;20379;-73
2020/12/23 12:29:57;;;;;;;;;;;;;;;4.77;100.00;99309.91;5100245;28;20035;-73
2020/12/23 12:32:23;;;;;;;;;;;;;;;4.74;100.00;99311.44;5100482;28;19977;-74
2020/12/23 12:34:50;;;;;;;;;;;;;;;4.79;100.00;99315.84;5082184;28;19959;-73
2020/12/23 12:37:16;;;;;;;;;;;;;;;4.74;100.00;99321.75;5099352;28;20072;-74
2020/12/23 12:39:43;;;;;;;;;;;;;;;4.76;100.00;99336.78;5100051;28;20355;-74
2020/12/23 12:42:09;;;;;;;;;;;;;;;4.74;100.00;99344.66;5100394;28;19924;-74
2020/12/23 12:44:36;;;;;;;;;;;;;;;4.75;100.00;99348.25;5116354;28;19947;-74
2020/12/23 12:47:03;;;;;;;;;;;;;;;4.73;100.00;99351.38;5100608;28;20375;-74
2020/12/23 12:49:29;;;;;;;;;;;;;;;4.75;100.00;99367.63;5099566;28;20382;-74